sensor_id;sensor_type;location;lat;lon;timestamp;temperature;humidity
8862;DHT22;4799;50.996;4.754;2022-11-20T00:00:52;3.90;99.90
8862;DHT22;4799;50.996;4.754;2022-11-20T00:03:18;3.90;99.90
8862;DHT22;4799;50.996;4.754;2022-11-20T00:05:44;3.90;99.90
8862;DHT22;4799;50.996;4.754;2022-11-20T00:08:10;3.90;99.90
8862;DHT22;4799;50.996;4.754;2022-11-20T00:10:37;3.90;99.90
8862;DHT22;4799;50.996;4.754;2022-11-20T00:13:03;3.90;99.90
8862;DHT22;4799;50.996;4.754;2022-11-20T00:15:29;3.90;99.90
8862;DHT22;4799;50.996;4.754;2022-11-20T00:17:54;3.90;99.90
8862;DHT22;4799;50.996;4.754;2022-11-20T00:20:20;3.90;99.90
8862;DHT22;4799;50.996;4.754;2022-11-20T00:22:46;3.90;99.90
8862;DHT22;4799;50.996;4.754;2022-11-20T00:25:12;3.90;99.90
8862;DHT22;4799;50.996;4.754;2022-11-20T00:27:37;4.00;99.90
8862;DHT22;4799;50.996;4.754;2022-11-20T00:30:04;4.00;99.90
8862;DHT22;4799;50.996;4.754;2022-11-20T00:32:30;3.90;99.90
8862;DHT22;4799;50.996;4.754;2022-11-20T00:34:56;4.00;99.90
8862;DHT22;4799;50.996;4.754;2022-11-20T00:37:21;3.90;99.90
8862;DHT22;4799;50.996;4.754;2022-11-20T00:39:47;3.90;99.90
8862;DHT22;4799;50.996;4.754;2022-11-20T00:42:13;4.00;99.90
8862;DHT22;4799;50.996;4.754;2022-11-20T00:44:39;3.90;99.90
8862;DHT22;4799;50.996;4.754;2022-11-20T00:47:05;4.00;99.90
8862;DHT22;4799;50.996;4.754;2022-11-20T00:49:30;4.00;99.90
8862;DHT22;4799;50.996;4.754;2022-11-20T00:51:56;4.00;99.90
8862;DHT22;4799;50.996;4.754;2022-11-20T00:54:22;4.00;99.90
8862;DHT22;4799;50.996;4.754;2022-11-20T00:56:48;4.00;99.90
8862;DHT22;4799;50.996;4.754;2022-11-20T00:59:13;4.00;99.90
8862;DHT22;4799;50.996;4.754;2022-11-20T01:01:39;4.00;99.90
8862;DHT22;4799;50.996;4.754;2022-11-20T01:04:05;4.00;99.90
8862;DHT22;4799;50.996;4.754;2022-11-20T01:06:35;4.00;99.90
8862;DHT22;4799;50.996;4.754;2022-11-20T01:09:11;3.90;99.90
8862;DHT22;4799;50.996;4.754;2022-11-20T01:11:40;3.90;99.90
8862;DHT22;4799;50.996;4.754;2022-11-20T01:14:11;3.90;99.90
8862;DHT22;4799;50.996;4.754;2022-11-20T01:16:39;3.90;99.90
8862;DHT22;4799;50.996;4.754;2022-11-20T01:19:09;4.00;99.90
8862;DHT22;4799;50.996;4.754;2022-11-20T01:21:38;3.90;99.90
8862;DHT22;4799;50.996;4.754;2022-11-20T01:24:05;4.00;99.90
8862;DHT22;4799;50.996;4.754;2022-11-20T01:26:34;4.00;99.90
8862;DHT22;4799;50.996;4.754;2022-11-20T01:29:01;4.00;99.90
8862;DHT22;4799;50.996;4.754;2022-11-20T01:31:28;4.00;99.90
8862;DHT22;4799;50.996;4.754;2022-11-20T01:33:56;4.00;99.90
8862;DHT22;4799;50.996;4.754;2022-11-20T01:36:23;4.00;99.90
8862;DHT22;4799;50.996;4.754;2022-11-20T01:38:54;4.00;99.90
8862;DHT22;4799;50.996;4.754;2022-11-20T01:41:22;4.00;99.90
8862;DHT22;4799;50.996;4.754;2022-11-20T01:44:06;4.00;99.90
8862;DHT22;4799;50.996;4.754;2022-11-20T01:46:35;4.00;99.90
8862;DHT22;4799;50.996;4.754;2022-11-20T01:51:43;4.00;99.90
8862;DHT22;4799;50.996;4.754;2022-11-20T01:54:17;4.00;99.90
8862;DHT22;4799;50.996;4.754;2022-11-20T01:56:45;4.00;99.90
8862;DHT22;4799;50.996;4.754;2022-11-20T01:59:16;4.00;99.90
8862;DHT22;4799;50.996;4.754;2022-11-20T02:01:42;4.00;99.90
8862;DHT22;4799;50.996;4.754;2022-11-20T02:04:08;4.00;99.90
8862;DHT22;4799;50.996;4.754;2022-11-20T02:06:45;4.00;99.90
8862;DHT22;4799;50.996;4.754;2022-11-20T02:09:11;4.00;99.90
8862;DHT22;4799;50.996;4.754;2022-11-20T02:11:37;4.00;99.90
8862;DHT22;4799;50.996;4.754;2022-11-20T02:14:03;4.00;99.90
8862;DHT22;4799;50.996;4.754;2022-11-20T02:16:32;4.00;99.90
8862;DHT22;4799;50.996;4.754;2022-11-20T02:19:02;4.00;99.90
8862;DHT22;4799;50.996;4.754;2022-11-20T02:21:37;4.00;99.90
8862;DHT22;4799;50.996;4.754;2022-11-20T02:24:14;3.90;99.90
8862;DHT22;4799;50.996;4.754;2022-11-20T02:29:26;3.90;99.90
8862;DHT22;4799;50.996;4.754;2022-11-20T02:31:54;3.90;99.90
8862;DHT22;4799;50.996;4.754;2022-11-20T02:34:20;3.90;99.90
8862;DHT22;4799;50.996;4.754;2022-11-20T02:36:46;3.90;99.90
8862;DHT22;4799;50.996;4.754;2022-11-20T02:39:15;3.80;99.90
8862;DHT22;4799;50.996;4.754;2022-11-20T02:41:42;3.90;99.90
8862;DHT22;4799;50.996;4.754;2022-11-20T02:44:08;3.80;99.90
8862;DHT22;4799;50.996;4.754;2022-11-20T02:46:34;3.90;99.90
8862;DHT22;4799;50.996;4.754;2022-11-20T02:49:04;3.80;99.90
8862;DHT22;4799;50.996;4.754;2022-11-20T02:51:30;3.90;99.90
8862;DHT22;4799;50.996;4.754;2022-11-20T02:53:56;3.90;99.90
8862;DHT22;4799;50.996;4.754;2022-11-20T02:56:22;3.90;99.90
8862;DHT22;4799;50.996;4.754;2022-11-20T02:58:47;3.80;99.90
8862;DHT22;4799;50.996;4.754;2022-11-20T03:01:13;3.80;99.90
8862;DHT22;4799;50.996;4.754;2022-11-20T03:03:39;3.80;99.90
8862;DHT22;4799;50.996;4.754;2022-11-20T03:06:05;3.80;99.90
8862;DHT22;4799;50.996;4.754;2022-11-20T03:08:31;3.80;99.90
8862;DHT22;4799;50.996;4.754;2022-11-20T03:11:02;3.80;99.90
8862;DHT22;4799;50.996;4.754;2022-11-20T03:13:28;3.80;99.90
8862;DHT22;4799;50.996;4.754;2022-11-20T03:15:53;3.80;99.90
8862;DHT22;4799;50.996;4.754;2022-11-20T03:18:19;3.80;99.90
8862;DHT22;4799;50.996;4.754;2022-11-20T03:20:45;3.80;99.90
8862;DHT22;4799;50.996;4.754;2022-11-20T03:23:11;3.80;99.90
8862;DHT22;4799;50.996;4.754;2022-11-20T03:25:36;3.80;99.90
8862;DHT22;4799;50.996;4.754;2022-11-20T03:28:02;3.80;99.90
8862;DHT22;4799;50.996;4.754;2022-11-20T03:30:28;3.80;99.90
8862;DHT22;4799;50.996;4.754;2022-11-20T03:32:54;3.90;99.90
8862;DHT22;4799;50.996;4.754;2022-11-20T03:35:20;3.80;99.90
8862;DHT22;4799;50.996;4.754;2022-11-20T03:37:45;3.90;99.90
8862;DHT22;4799;50.996;4.754;2022-11-20T03:40:11;3.80;99.90
8862;DHT22;4799;50.996;4.754;2022-11-20T03:42:37;3.90;99.90
8862;DHT22;4799;50.996;4.754;2022-11-20T03:45:16;3.90;99.90
8862;DHT22;4799;50.996;4.754;2022-11-20T03:47:43;3.80;99.90
8862;DHT22;4799;50.996;4.754;2022-11-20T03:50:10;3.90;99.90
8862;DHT22;4799;50.996;4.754;2022-11-20T03:52:38;3.90;99.90
8862;DHT22;4799;50.996;4.754;2022-11-20T03:55:04;3.90;99.90
8862;DHT22;4799;50.996;4.754;2022-11-20T03:57:30;3.90;99.90
8862;DHT22;4799;50.996;4.754;2022-11-20T03:59:56;3.90;99.90
8862;DHT22;4799;50.996;4.754;2022-11-20T04:02:22;3.80;99.90
8862;DHT22;4799;50.996;4.754;2022-11-20T04:04:48;3.80;99.90
8862;DHT22;4799;50.996;4.754;2022-11-20T04:07:14;3.80;99.90
8862;DHT22;4799;50.996;4.754;2022-11-20T04:09:40;3.80;99.90
8862;DHT22;4799;50.996;4.754;2022-11-20T04:12:06;3.80;99.90
8862;DHT22;4799;50.996;4.754;2022-11-20T04:14:33;3.90;99.90
8862;DHT22;4799;50.996;4.754;2022-11-20T04:16:59;3.90;99.90
8862;DHT22;4799;50.996;4.754;2022-11-20T04:19:24;3.90;99.90
8862;DHT22;4799;50.996;4.754;2022-11-20T04:21:50;3.90;99.90
8862;DHT22;4799;50.996;4.754;2022-11-20T04:24:15;3.90;99.90
8862;DHT22;4799;50.996;4.754;2022-11-20T04:26:41;3.90;99.90
8862;DHT22;4799;50.996;4.754;2022-11-20T04:29:11;3.90;99.90
8862;DHT22;4799;50.996;4.754;2022-11-20T04:31:36;3.90;99.90
8862;DHT22;4799;50.996;4.754;2022-11-20T04:34:04;3.90;99.90
8862;DHT22;4799;50.996;4.754;2022-11-20T04:36:31;4.00;99.90
8862;DHT22;4799;50.996;4.754;2022-11-20T04:38:59;4.00;99.90
8862;DHT22;4799;50.996;4.754;2022-11-20T04:41:28;3.90;99.90
8862;DHT22;4799;50.996;4.754;2022-11-20T04:43:57;4.00;99.90
8862;DHT22;4799;50.996;4.754;2022-11-20T04:46:26;4.00;99.90
8862;DHT22;4799;50.996;4.754;2022-11-20T04:48:52;4.00;99.90
8862;DHT22;4799;50.996;4.754;2022-11-20T04:51:18;4.00;99.90
8862;DHT22;4799;50.996;4.754;2022-11-20T04:53:44;4.00;99.90
8862;DHT22;4799;50.996;4.754;2022-11-20T04:56:11;4.00;99.90
8862;DHT22;4799;50.996;4.754;2022-11-20T04:58:38;4.00;99.90
8862;DHT22;4799;50.996;4.754;2022-11-20T05:01:18;4.00;99.90
8862;DHT22;4799;50.996;4.754;2022-11-20T05:03:44;4.00;99.90
8862;DHT22;4799;50.996;4.754;2022-11-20T05:06:13;4.10;99.90
8862;DHT22;4799;50.996;4.754;2022-11-20T05:08:39;4.00;99.90
8862;DHT22;4799;50.996;4.754;2022-11-20T05:11:11;4.00;99.90
8862;DHT22;4799;50.996;4.754;2022-11-20T05:13:37;4.00;99.90
8862;DHT22;4799;50.996;4.754;2022-11-20T05:16:05;4.00;99.90
8862;DHT22;4799;50.996;4.754;2022-11-20T05:18:33;4.00;99.90
8862;DHT22;4799;50.996;4.754;2022-11-20T05:20:58;3.90;99.90
8862;DHT22;4799;50.996;4.754;2022-11-20T05:23:26;3.90;99.90
8862;DHT22;4799;50.996;4.754;2022-11-20T05:25:53;3.90;99.90
8862;DHT22;4799;50.996;4.754;2022-11-20T05:28:20;3.90;99.90
8862;DHT22;4799;50.996;4.754;2022-11-20T05:30:46;3.90;99.90
8862;DHT22;4799;50.996;4.754;2022-11-20T05:33:11;3.90;99.90
8862;DHT22;4799;50.996;4.754;2022-11-20T05:35:37;3.90;99.90
8862;DHT22;4799;50.996;4.754;2022-11-20T05:38:03;4.00;99.90
8862;DHT22;4799;50.996;4.754;2022-11-20T05:40:29;3.90;99.90
8862;DHT22;4799;50.996;4.754;2022-11-20T05:42:54;4.00;99.90
8862;DHT22;4799;50.996;4.754;2022-11-20T05:45:20;4.00;99.90
8862;DHT22;4799;50.996;4.754;2022-11-20T05:47:46;4.00;99.90
8862;DHT22;4799;50.996;4.754;2022-11-20T05:50:12;4.00;99.90
8862;DHT22;4799;50.996;4.754;2022-11-20T05:52:37;4.10;99.90
8862;DHT22;4799;50.996;4.754;2022-11-20T05:55:03;4.10;99.90
8862;DHT22;4799;50.996;4.754;2022-11-20T05:57:30;4.00;99.90
8862;DHT22;4799;50.996;4.754;2022-11-20T05:59:56;4.00;99.90
8862;DHT22;4799;50.996;4.754;2022-11-20T06:02:22;4.00;99.90
8862;DHT22;4799;50.996;4.754;2022-11-20T06:04:47;4.00;99.90
8862;DHT22;4799;50.996;4.754;2022-11-20T06:07:13;4.00;99.90
8862;DHT22;4799;50.996;4.754;2022-11-20T06:09:39;4.00;99.90
8862;DHT22;4799;50.996;4.754;2022-11-20T06:12:05;3.90;99.90
8862;DHT22;4799;50.996;4.754;2022-11-20T06:14:32;4.00;99.90
8862;DHT22;4799;50.996;4.754;2022-11-20T06:16:58;3.90;99.90
8862;DHT22;4799;50.996;4.754;2022-11-20T06:19:24;3.90;99.90
8862;DHT22;4799;50.996;4.754;2022-11-20T06:21:49;3.90;99.90
8862;DHT22;4799;50.996;4.754;2022-11-20T06:24:16;3.80;99.90
8862;DHT22;4799;50.996;4.754;2022-11-20T06:26:42;3.80;99.90
8862;DHT22;4799;50.996;4.754;2022-11-20T06:29:07;3.70;99.90
8862;DHT22;4799;50.996;4.754;2022-11-20T06:31:33;3.60;99.90
8862;DHT22;4799;50.996;4.754;2022-11-20T06:34:05;3.50;99.90
8862;DHT22;4799;50.996;4.754;2022-11-20T06:36:32;3.30;99.90
8862;DHT22;4799;50.996;4.754;2022-11-20T06:38:58;3.30;99.90
8862;DHT22;4799;50.996;4.754;2022-11-20T06:41:24;3.20;99.90
8862;DHT22;4799;50.996;4.754;2022-11-20T06:43:51;3.10;99.90
8862;DHT22;4799;50.996;4.754;2022-11-20T06:46:18;3.10;99.90
8862;DHT22;4799;50.996;4.754;2022-11-20T06:48:44;3.10;99.90
8862;DHT22;4799;50.996;4.754;2022-11-20T06:51:10;3.10;99.90
8862;DHT22;4799;50.996;4.754;2022-11-20T06:53:37;3.10;99.90
8862;DHT22;4799;50.996;4.754;2022-11-20T06:56:03;3.20;99.90
8862;DHT22;4799;50.996;4.754;2022-11-20T06:58:31;3.20;99.90
8862;DHT22;4799;50.996;4.754;2022-11-20T07:01:12;3.30;99.90
8862;DHT22;4799;50.996;4.754;2022-11-20T07:03:38;3.30;99.90
8862;DHT22;4799;50.996;4.754;2022-11-20T07:06:04;3.40;99.90
8862;DHT22;4799;50.996;4.754;2022-11-20T07:08:31;3.40;99.90
8862;DHT22;4799;50.996;4.754;2022-11-20T07:10:59;3.50;99.90
8862;DHT22;4799;50.996;4.754;2022-11-20T07:13:25;3.50;99.90
8862;DHT22;4799;50.996;4.754;2022-11-20T07:15:51;3.60;99.90
8862;DHT22;4799;50.996;4.754;2022-11-20T07:18:17;3.60;99.90
8862;DHT22;4799;50.996;4.754;2022-11-20T07:20:43;3.60;99.90
8862;DHT22;4799;50.996;4.754;2022-11-20T07:23:08;3.70;99.90
8862;DHT22;4799;50.996;4.754;2022-11-20T07:25:34;3.70;99.90
8862;DHT22;4799;50.996;4.754;2022-11-20T07:28:00;3.80;99.90
8862;DHT22;4799;50.996;4.754;2022-11-20T07:30:27;3.80;99.90
8862;DHT22;4799;50.996;4.754;2022-11-20T07:32:54;3.90;99.90
8862;DHT22;4799;50.996;4.754;2022-11-20T07:35:21;3.90;99.90
8862;DHT22;4799;50.996;4.754;2022-11-20T07:37:47;4.00;99.90
8862;DHT22;4799;50.996;4.754;2022-11-20T07:40:14;4.00;99.90
8862;DHT22;4799;50.996;4.754;2022-11-20T07:42:50;4.10;99.90
8862;DHT22;4799;50.996;4.754;2022-11-20T07:45:17;4.10;99.90
8862;DHT22;4799;50.996;4.754;2022-11-20T07:47:43;4.20;99.90
8862;DHT22;4799;50.996;4.754;2022-11-20T07:50:10;4.20;99.90
8862;DHT22;4799;50.996;4.754;2022-11-20T07:52:35;4.30;99.90
8862;DHT22;4799;50.996;4.754;2022-11-20T07:55:01;4.30;99.90
8862;DHT22;4799;50.996;4.754;2022-11-20T07:57:27;4.30;99.90
8862;DHT22;4799;50.996;4.754;2022-11-20T07:59:52;4.30;99.90
8862;DHT22;4799;50.996;4.754;2022-11-20T08:02:18;4.40;99.90
8862;DHT22;4799;50.996;4.754;2022-11-20T08:04:44;4.40;99.90
8862;DHT22;4799;50.996;4.754;2022-11-20T08:07:09;4.50;99.90
8862;DHT22;4799;50.996;4.754;2022-11-20T08:09:35;4.50;99.90
8862;DHT22;4799;50.996;4.754;2022-11-20T08:12:01;4.50;99.90
8862;DHT22;4799;50.996;4.754;2022-11-20T08:14:45;4.60;99.90
8862;DHT22;4799;50.996;4.754;2022-11-20T08:17:11;4.60;99.90
8862;DHT22;4799;50.996;4.754;2022-11-20T08:19:37;4.70;99.90
8862;DHT22;4799;50.996;4.754;2022-11-20T08:22:03;4.70;99.90
8862;DHT22;4799;50.996;4.754;2022-11-20T08:24:29;4.80;99.90
8862;DHT22;4799;50.996;4.754;2022-11-20T08:27:00;4.90;99.90
8862;DHT22;4799;50.996;4.754;2022-11-20T08:29:26;4.90;99.90
8862;DHT22;4799;50.996;4.754;2022-11-20T08:31:52;5.00;99.90
8862;DHT22;4799;50.996;4.754;2022-11-20T08:34:18;5.00;99.90
8862;DHT22;4799;50.996;4.754;2022-11-20T08:36:44;5.10;99.90
8862;DHT22;4799;50.996;4.754;2022-11-20T08:39:13;5.10;99.90
8862;DHT22;4799;50.996;4.754;2022-11-20T08:41:38;5.20;99.90
8862;DHT22;4799;50.996;4.754;2022-11-20T08:44:06;5.20;99.90
8862;DHT22;4799;50.996;4.754;2022-11-20T08:46:38;5.30;99.90
8862;DHT22;4799;50.996;4.754;2022-11-20T08:49:05;5.40;99.90
8862;DHT22;4799;50.996;4.754;2022-11-20T08:51:31;5.40;99.90
8862;DHT22;4799;50.996;4.754;2022-11-20T08:53:57;5.40;99.90
8862;DHT22;4799;50.996;4.754;2022-11-20T08:56:23;5.50;99.90
8862;DHT22;4799;50.996;4.754;2022-11-20T08:58:51;5.50;99.90
8862;DHT22;4799;50.996;4.754;2022-11-20T09:01:20;5.50;99.90
8862;DHT22;4799;50.996;4.754;2022-11-20T09:03:46;5.60;99.90
8862;DHT22;4799;50.996;4.754;2022-11-20T09:06:13;5.60;99.90
8862;DHT22;4799;50.996;4.754;2022-11-20T09:08:39;5.70;99.90
8862;DHT22;4799;50.996;4.754;2022-11-20T09:11:06;5.70;99.90
8862;DHT22;4799;50.996;4.754;2022-11-20T09:13:33;5.80;99.90
8862;DHT22;4799;50.996;4.754;2022-11-20T09:16:09;5.80;99.90
8862;DHT22;4799;50.996;4.754;2022-11-20T09:18:36;5.80;99.90
8862;DHT22;4799;50.996;4.754;2022-11-20T09:21:05;5.90;99.90
8862;DHT22;4799;50.996;4.754;2022-11-20T09:23:34;5.90;99.90
8862;DHT22;4799;50.996;4.754;2022-11-20T09:26:09;5.90;99.90
8862;DHT22;4799;50.996;4.754;2022-11-20T09:28:35;5.90;99.90
8862;DHT22;4799;50.996;4.754;2022-11-20T09:31:05;6.00;99.90
8862;DHT22;4799;50.996;4.754;2022-11-20T09:33:31;6.00;99.90
8862;DHT22;4799;50.996;4.754;2022-11-20T09:35:57;6.10;99.90
8862;DHT22;4799;50.996;4.754;2022-11-20T09:38:23;6.10;99.90
8862;DHT22;4799;50.996;4.754;2022-11-20T09:41:01;6.10;99.90
8862;DHT22;4799;50.996;4.754;2022-11-20T09:52:33;6.30;99.90
8862;DHT22;4799;50.996;4.754;2022-11-20T09:55:04;6.40;99.90
8862;DHT22;4799;50.996;4.754;2022-11-20T09:57:36;6.40;99.90
8862;DHT22;4799;50.996;4.754;2022-11-20T10:00:08;6.50;99.90
8862;DHT22;4799;50.996;4.754;2022-11-20T10:02:54;6.60;99.90
8862;DHT22;4799;50.996;4.754;2022-11-20T10:05:31;6.70;99.90
8862;DHT22;4799;50.996;4.754;2022-11-20T10:10:45;6.80;99.90
8862;DHT22;4799;50.996;4.754;2022-11-20T10:30:10;7.30;99.90
8862;DHT22;4799;50.996;4.754;2022-11-20T10:32:39;7.40;99.90
8862;DHT22;4799;50.996;4.754;2022-11-20T10:35:21;7.40;99.90
8862;DHT22;4799;50.996;4.754;2022-11-20T10:38:00;7.50;99.90
8862;DHT22;4799;50.996;4.754;2022-11-20T10:43:02;7.60;99.90
8862;DHT22;4799;50.996;4.754;2022-11-20T10:45:45;7.70;99.90
8862;DHT22;4799;50.996;4.754;2022-11-20T10:48:20;7.80;99.90
8862;DHT22;4799;50.996;4.754;2022-11-20T10:51:10;7.90;99.90
8862;DHT22;4799;50.996;4.754;2022-11-20T11:01:43;8.10;99.90
8862;DHT22;4799;50.996;4.754;2022-11-20T11:04:32;8.10;99.90
8862;DHT22;4799;50.996;4.754;2022-11-20T11:07:10;8.20;99.90
8862;DHT22;4799;50.996;4.754;2022-11-20T11:09:43;8.30;99.90
8862;DHT22;4799;50.996;4.754;2022-11-20T11:12:09;8.30;99.90
8862;DHT22;4799;50.996;4.754;2022-11-20T11:14:50;8.40;99.90
8862;DHT22;4799;50.996;4.754;2022-11-20T11:17:32;8.50;99.90
8862;DHT22;4799;50.996;4.754;2022-11-20T11:22:33;8.60;99.90
8862;DHT22;4799;50.996;4.754;2022-11-20T11:25:00;8.70;99.90
8862;DHT22;4799;50.996;4.754;2022-11-20T11:27:25;8.70;99.90
8862;DHT22;4799;50.996;4.754;2022-11-20T11:30:22;8.80;99.90
8862;DHT22;4799;50.996;4.754;2022-11-20T11:32:47;8.90;99.90
8862;DHT22;4799;50.996;4.754;2022-11-20T11:35:27;9.00;99.90
8862;DHT22;4799;50.996;4.754;2022-11-20T11:38:02;9.10;99.90
8862;DHT22;4799;50.996;4.754;2022-11-20T11:40:29;9.10;99.90
8862;DHT22;4799;50.996;4.754;2022-11-20T11:43:05;9.20;99.90
8862;DHT22;4799;50.996;4.754;2022-11-20T11:45:55;9.30;99.90
8862;DHT22;4799;50.996;4.754;2022-11-20T11:48:21;9.40;99.90
8862;DHT22;4799;50.996;4.754;2022-11-20T11:50:50;9.40;99.90
8862;DHT22;4799;50.996;4.754;2022-11-20T11:53:22;9.50;99.90
8862;DHT22;4799;50.996;4.754;2022-11-20T11:55:57;9.60;99.90
8862;DHT22;4799;50.996;4.754;2022-11-20T12:03:38;9.60;99.90
8862;DHT22;4799;50.996;4.754;2022-11-20T12:06:11;9.60;99.90
8862;DHT22;4799;50.996;4.754;2022-11-20T12:11:07;9.60;99.90
8862;DHT22;4799;50.996;4.754;2022-11-20T12:14:00;9.70;99.90
8862;DHT22;4799;50.996;4.754;2022-11-20T12:16:35;9.70;99.90
8862;DHT22;4799;50.996;4.754;2022-11-20T12:19:02;9.70;99.90
8862;DHT22;4799;50.996;4.754;2022-11-20T12:21:58;9.70;99.90
8862;DHT22;4799;50.996;4.754;2022-11-20T12:24:58;9.70;99.90
8862;DHT22;4799;50.996;4.754;2022-11-20T12:30:10;9.60;99.90
8862;DHT22;4799;50.996;4.754;2022-11-20T12:35:21;9.50;99.90
8862;DHT22;4799;50.996;4.754;2022-11-20T12:38:29;9.40;99.90
8862;DHT22;4799;50.996;4.754;2022-11-20T12:41:15;9.40;99.90
8862;DHT22;4799;50.996;4.754;2022-11-20T12:58:12;8.90;99.90
8862;DHT22;4799;50.996;4.754;2022-11-20T13:00:50;8.80;99.90
8862;DHT22;4799;50.996;4.754;2022-11-20T13:03:46;8.70;99.90
8862;DHT22;4799;50.996;4.754;2022-11-20T13:06:17;8.60;99.90
8862;DHT22;4799;50.996;4.754;2022-11-20T13:08:54;8.50;99.90
8862;DHT22;4799;50.996;4.754;2022-11-20T13:14:33;8.50;99.90
8862;DHT22;4799;50.996;4.754;2022-11-20T13:19:54;8.40;99.90
8862;DHT22;4799;50.996;4.754;2022-11-20T13:22:28;8.30;99.90
8862;DHT22;4799;50.996;4.754;2022-11-20T13:24:54;8.30;99.90
8862;DHT22;4799;50.996;4.754;2022-11-20T13:27:22;8.30;99.90
8862;DHT22;4799;50.996;4.754;2022-11-20T13:30:14;8.30;99.90
8862;DHT22;4799;50.996;4.754;2022-11-20T13:32:57;8.40;99.90
8862;DHT22;4799;50.996;4.754;2022-11-20T13:35:34;8.40;99.90
8862;DHT22;4799;50.996;4.754;2022-11-20T13:38:09;8.40;99.90
8862;DHT22;4799;50.996;4.754;2022-11-20T13:40:59;8.40;99.90
8862;DHT22;4799;50.996;4.754;2022-11-20T13:43:47;8.50;99.90
8862;DHT22;4799;50.996;4.754;2022-11-20T13:46:13;8.50;99.90
8862;DHT22;4799;50.996;4.754;2022-11-20T14:02:00;8.60;99.90
8862;DHT22;4799;50.996;4.754;2022-11-20T14:04:30;8.50;99.90
8862;DHT22;4799;50.996;4.754;2022-11-20T14:06:59;8.50;99.90
8862;DHT22;4799;50.996;4.754;2022-11-20T14:09:32;8.50;99.90
8862;DHT22;4799;50.996;4.754;2022-11-20T14:11:59;8.40;99.90
8862;DHT22;4799;50.996;4.754;2022-11-20T14:14:29;8.40;99.90
8862;DHT22;4799;50.996;4.754;2022-11-20T14:17:06;8.30;99.90
8862;DHT22;4799;50.996;4.754;2022-11-20T14:19:33;8.30;99.90
8862;DHT22;4799;50.996;4.754;2022-11-20T14:24:36;8.30;99.90
8862;DHT22;4799;50.996;4.754;2022-11-20T14:27:02;8.30;99.90
8862;DHT22;4799;50.996;4.754;2022-11-20T14:29:38;8.30;99.90
8862;DHT22;4799;50.996;4.754;2022-11-20T14:32:04;8.30;99.90
8862;DHT22;4799;50.996;4.754;2022-11-20T14:34:33;8.30;99.90
8862;DHT22;4799;50.996;4.754;2022-11-20T14:37:05;8.30;99.90
8862;DHT22;4799;50.996;4.754;2022-11-20T14:39:37;8.30;99.90
8862;DHT22;4799;50.996;4.754;2022-11-20T14:42:12;8.30;99.90
8862;DHT22;4799;50.996;4.754;2022-11-20T14:44:41;8.30;99.90
8862;DHT22;4799;50.996;4.754;2022-11-20T14:47:12;8.30;99.90
8862;DHT22;4799;50.996;4.754;2022-11-20T14:49:38;8.20;99.90
8862;DHT22;4799;50.996;4.754;2022-11-20T14:52:23;8.20;99.90
8862;DHT22;4799;50.996;4.754;2022-11-20T14:54:55;8.20;99.90
8862;DHT22;4799;50.996;4.754;2022-11-20T14:57:35;8.20;99.90
8862;DHT22;4799;50.996;4.754;2022-11-20T15:00:07;8.20;99.90
8862;DHT22;4799;50.996;4.754;2022-11-20T15:02:45;8.20;99.90
8862;DHT22;4799;50.996;4.754;2022-11-20T15:05:11;8.20;99.90
8862;DHT22;4799;50.996;4.754;2022-11-20T15:07:39;8.20;99.90
8862;DHT22;4799;50.996;4.754;2022-11-20T15:12:37;8.10;99.90
8862;DHT22;4799;50.996;4.754;2022-11-20T15:15:04;8.10;99.90
8862;DHT22;4799;50.996;4.754;2022-11-20T15:17:32;8.10;99.90
8862;DHT22;4799;50.996;4.754;2022-11-20T15:19:59;8.20;99.90
8862;DHT22;4799;50.996;4.754;2022-11-20T15:22:25;8.10;99.90
8862;DHT22;4799;50.996;4.754;2022-11-20T15:24:51;8.20;99.90
8862;DHT22;4799;50.996;4.754;2022-11-20T15:27:17;8.20;99.90
8862;DHT22;4799;50.996;4.754;2022-11-20T15:29:43;8.20;99.90
8862;DHT22;4799;50.996;4.754;2022-11-20T15:32:09;8.20;99.90
8862;DHT22;4799;50.996;4.754;2022-11-20T15:34:34;8.20;99.90
8862;DHT22;4799;50.996;4.754;2022-11-20T15:37:00;8.20;99.90
8862;DHT22;4799;50.996;4.754;2022-11-20T15:39:26;8.20;99.90
8862;DHT22;4799;50.996;4.754;2022-11-20T15:41:51;8.20;99.90
8862;DHT22;4799;50.996;4.754;2022-11-20T15:44:17;8.30;99.90
8862;DHT22;4799;50.996;4.754;2022-11-20T15:46:43;8.30;99.90
8862;DHT22;4799;50.996;4.754;2022-11-20T15:49:15;8.30;99.90
8862;DHT22;4799;50.996;4.754;2022-11-20T15:51:44;8.30;99.90
8862;DHT22;4799;50.996;4.754;2022-11-20T15:54:29;8.30;99.90
8862;DHT22;4799;50.996;4.754;2022-11-20T15:56:55;8.30;99.90
8862;DHT22;4799;50.996;4.754;2022-11-20T15:59:21;8.30;99.90
8862;DHT22;4799;50.996;4.754;2022-11-20T16:01:47;8.40;99.90
8862;DHT22;4799;50.996;4.754;2022-11-20T16:04:14;8.30;99.90
8862;DHT22;4799;50.996;4.754;2022-11-20T16:06:41;8.30;99.90
8862;DHT22;4799;50.996;4.754;2022-11-20T16:09:07;8.30;99.90
8862;DHT22;4799;50.996;4.754;2022-11-20T16:11:34;8.30;99.90
8862;DHT22;4799;50.996;4.754;2022-11-20T16:14:02;8.30;99.90
8862;DHT22;4799;50.996;4.754;2022-11-20T16:16:47;8.20;99.90
8862;DHT22;4799;50.996;4.754;2022-11-20T16:19:13;8.20;99.90
8862;DHT22;4799;50.996;4.754;2022-11-20T16:21:40;8.10;99.90
8862;DHT22;4799;50.996;4.754;2022-11-20T16:24:08;8.10;99.90
8862;DHT22;4799;50.996;4.754;2022-11-20T16:26:35;8.10;99.90
8862;DHT22;4799;50.996;4.754;2022-11-20T16:29:02;8.10;99.90
8862;DHT22;4799;50.996;4.754;2022-11-20T16:31:29;8.20;99.90
8862;DHT22;4799;50.996;4.754;2022-11-20T16:34:00;8.10;99.90
8862;DHT22;4799;50.996;4.754;2022-11-20T16:36:28;8.10;99.90
8862;DHT22;4799;50.996;4.754;2022-11-20T16:38:59;8.00;99.90
8862;DHT22;4799;50.996;4.754;2022-11-20T16:41:26;8.00;99.90
8862;DHT22;4799;50.996;4.754;2022-11-20T16:43:58;7.90;99.90
8862;DHT22;4799;50.996;4.754;2022-11-20T16:46:26;7.90;99.90
8862;DHT22;4799;50.996;4.754;2022-11-20T16:48:54;7.80;99.90
8862;DHT22;4799;50.996;4.754;2022-11-20T16:51:20;7.80;99.90
8862;DHT22;4799;50.996;4.754;2022-11-20T16:53:46;7.70;99.90
8862;DHT22;4799;50.996;4.754;2022-11-20T16:56:14;7.70;99.90
8862;DHT22;4799;50.996;4.754;2022-11-20T16:58:42;7.60;99.90
8862;DHT22;4799;50.996;4.754;2022-11-20T17:01:09;7.60;99.90
8862;DHT22;4799;50.996;4.754;2022-11-20T17:03:40;7.70;99.90
8862;DHT22;4799;50.996;4.754;2022-11-20T17:06:14;7.70;99.90
8862;DHT22;4799;50.996;4.754;2022-11-20T17:08:44;7.70;99.90
8862;DHT22;4799;50.996;4.754;2022-11-20T17:11:11;7.70;99.90
8862;DHT22;4799;50.996;4.754;2022-11-20T17:13:38;7.70;99.90
8862;DHT22;4799;50.996;4.754;2022-11-20T17:16:06;7.80;99.90
8862;DHT22;4799;50.996;4.754;2022-11-20T17:18:32;7.80;99.90
8862;DHT22;4799;50.996;4.754;2022-11-20T17:20:58;7.90;99.90
8862;DHT22;4799;50.996;4.754;2022-11-20T17:23:32;7.90;99.90
8862;DHT22;4799;50.996;4.754;2022-11-20T17:26:07;8.00;99.90
8862;DHT22;4799;50.996;4.754;2022-11-20T17:28:33;8.00;99.90
8862;DHT22;4799;50.996;4.754;2022-11-20T17:31:09;8.00;99.90
8862;DHT22;4799;50.996;4.754;2022-11-20T17:33:37;8.10;99.90
8862;DHT22;4799;50.996;4.754;2022-11-20T17:36:04;8.10;99.90
8862;DHT22;4799;50.996;4.754;2022-11-20T17:38:30;8.00;99.90
8862;DHT22;4799;50.996;4.754;2022-11-20T17:41:07;8.00;99.90
8862;DHT22;4799;50.996;4.754;2022-11-20T17:43:34;8.00;99.90
8862;DHT22;4799;50.996;4.754;2022-11-20T17:46:07;8.00;99.90
8862;DHT22;4799;50.996;4.754;2022-11-20T17:48:34;7.90;99.90
8862;DHT22;4799;50.996;4.754;2022-11-20T17:51:04;7.90;99.90
8862;DHT22;4799;50.996;4.754;2022-11-20T17:53:36;7.80;99.90
8862;DHT22;4799;50.996;4.754;2022-11-20T17:56:03;7.70;99.90
8862;DHT22;4799;50.996;4.754;2022-11-20T17:58:47;7.70;99.90
8862;DHT22;4799;50.996;4.754;2022-11-20T18:01:13;7.60;99.90
8862;DHT22;4799;50.996;4.754;2022-11-20T18:03:39;7.50;99.90
8862;DHT22;4799;50.996;4.754;2022-11-20T18:06:13;7.40;99.90
8862;DHT22;4799;50.996;4.754;2022-11-20T18:08:40;7.40;99.90